sensor_id;sensor_type;location;lat;lon;timestamp;pressure;altitude;pressure_sealevel;temperature;humidity
22481;BME280;11407;56.964;-2.212;2022-08-21T00:01:19;100685.25;;;21.73;39.55
22481;BME280;11407;56.964;-2.212;2022-08-21T00:03:45;100675.47;;;21.80;39.00
22481;BME280;11407;56.964;-2.212;2022-08-21T00:06:11;100676.56;;;21.85;38.67
22481;BME280;11407;56.964;-2.212;2022-08-21T00:08:37;100673.38;;;21.82;39.17
22481;BME280;11407;56.964;-2.212;2022-08-21T00:11:03;100664.22;;;21.90;39.06
22481;BME280;11407;56.964;-2.212;2022-08-21T00:13:29;100669.31;;;21.85;39.03
22481;BME280;11407;56.964;-2.212;2022-08-21T00:15:55;100671.84;;;21.87;39.05
22481;BME280;11407;56.964;-2.212;2022-08-21T00:18:20;100664.00;;;21.71;39.15
22481;BME280;11407;56.964;-2.212;2022-08-21T00:20:47;100667.84;;;21.83;39.02
22481;BME280;11407;56.964;-2.212;2022-08-21T00:23:13;100665.59;;;21.51;39.73
22481;BME280;11407;56.964;-2.212;2022-08-21T00:25:39;100655.03;;;21.50;39.63
22481;BME280;11407;56.964;-2.212;2022-08-21T00:28:05;100650.75;;;21.55;39.47
22481;BME280;11407;56.964;-2.212;2022-08-21T00:30:32;100651.25;;;21.59;39.61
22481;BME280;11407;56.964;-2.212;2022-08-21T00:32:57;100645.97;;;21.51;39.69
22481;BME280;11407;56.964;-2.212;2022-08-21T00:35:27;100646.97;;;21.50;39.91
22481;BME280;11407;56.964;-2.212;2022-08-21T00:37:53;100649.50;;;21.51;39.96
22481;BME280;11407;56.964;-2.212;2022-08-21T00:40:23;100649.59;;;21.58;39.85
22481;BME280;11407;56.964;-2.212;2022-08-21T00:42:49;100651.78;;;21.54;40.09
22481;BME280;11407;56.964;-2.212;2022-08-21T00:45:15;100633.50;;;21.58;40.29
22481;BME280;11407;56.964;-2.212;2022-08-21T00:47:41;100645.50;;;21.62;39.89
22481;BME280;11407;56.964;-2.212;2022-08-21T00:50:12;100625.22;;;21.74;40.08
22481;BME280;11407;56.964;-2.212;2022-08-21T00:52:39;100639.06;;;21.77;40.06
22481;BME280;11407;56.964;-2.212;2022-08-21T00:55:08;100631.66;;;21.79;40.00
22481;BME280;11407;56.964;-2.212;2022-08-21T00:57:42;100628.34;;;21.77;39.84
22481;BME280;11407;56.964;-2.212;2022-08-21T01:00:13;100635.50;;;21.70;40.09
22481;BME280;11407;56.964;-2.212;2022-08-21T01:02:40;100640.59;;;21.65;40.25
22481;BME280;11407;56.964;-2.212;2022-08-21T01:05:06;100646.44;;;21.69;40.49
22481;BME280;11407;56.964;-2.212;2022-08-21T01:07:31;100642.91;;;21.68;40.33
22481;BME280;11407;56.964;-2.212;2022-08-21T01:09:57;100642.66;;;21.63;40.79
22481;BME280;11407;56.964;-2.212;2022-08-21T01:12:23;100637.97;;;21.72;40.51
22481;BME280;11407;56.964;-2.212;2022-08-21T01:14:49;100639.28;;;21.76;40.58
22481;BME280;11407;56.964;-2.212;2022-08-21T01:17:15;100640.56;;;21.80;40.41
22481;BME280;11407;56.964;-2.212;2022-08-21T01:19:42;100635.22;;;21.80;40.65
22481;BME280;11407;56.964;-2.212;2022-08-21T01:22:08;100640.06;;;21.70;40.64
22481;BME280;11407;56.964;-2.212;2022-08-21T01:24:35;100639.97;;;21.63;40.75
22481;BME280;11407;56.964;-2.212;2022-08-21T01:27:00;100645.13;;;21.65;40.98
22481;BME280;11407;56.964;-2.212;2022-08-21T01:32:12;100639.56;;;21.81;40.64
22481;BME280;11407;56.964;-2.212;2022-08-21T01:34:40;100642.09;;;21.88;40.57
22481;BME280;11407;56.964;-2.212;2022-08-21T01:37:07;100635.56;;;21.77;40.89
22481;BME280;11407;56.964;-2.212;2022-08-21T01:39:33;100639.78;;;21.65;41.07
22481;BME280;11407;56.964;-2.212;2022-08-21T01:41:58;100650.31;;;21.66;40.99
22481;BME280;11407;56.964;-2.212;2022-08-21T01:44:24;100649.19;;;21.75;40.86
22481;BME280;11407;56.964;-2.212;2022-08-21T01:46:50;100655.81;;;21.79;41.07
22481;BME280;11407;56.964;-2.212;2022-08-21T01:49:16;100653.72;;;21.75;41.26
22481;BME280;11407;56.964;-2.212;2022-08-21T01:51:43;100651.75;;;21.83;41.31
22481;BME280;11407;56.964;-2.212;2022-08-21T01:54:09;100656.81;;;21.92;40.73
22481;BME280;11407;56.964;-2.212;2022-08-21T01:56:44;100668.25;;;22.01;40.77
22481;BME280;11407;56.964;-2.212;2022-08-21T01:59:10;100666.41;;;22.01;40.65
22481;BME280;11407;56.964;-2.212;2022-08-21T02:01:36;100650.97;;;21.89;41.14
22481;BME280;11407;56.964;-2.212;2022-08-21T02:04:02;100655.44;;;21.82;40.93
22481;BME280;11407;56.964;-2.212;2022-08-21T02:06:28;100663.78;;;21.73;41.31
22481;BME280;11407;56.964;-2.212;2022-08-21T02:08:53;100660.38;;;21.79;41.20
22481;BME280;11407;56.964;-2.212;2022-08-21T02:11:19;100655.38;;;21.76;41.33
22481;BME280;11407;56.964;-2.212;2022-08-21T02:13:45;100651.59;;;21.70;41.51
22481;BME280;11407;56.964;-2.212;2022-08-21T02:16:11;100651.31;;;21.80;41.73
22481;BME280;11407;56.964;-2.212;2022-08-21T02:18:37;100653.16;;;22.00;41.22
22481;BME280;11407;56.964;-2.212;2022-08-21T02:21:03;100653.16;;;22.00;41.36
22481;BME280;11407;56.964;-2.212;2022-08-21T02:23:29;100650.53;;;22.06;41.36
22481;BME280;11407;56.964;-2.212;2022-08-21T02:25:57;100651.97;;;22.02;41.32
22481;BME280;11407;56.964;-2.212;2022-08-21T02:28:23;100642.25;;;22.01;41.32
22481;BME280;11407;56.964;-2.212;2022-08-21T02:30:49;100641.88;;;22.04;41.25
22481;BME280;11407;56.964;-2.212;2022-08-21T02:33:15;100631.81;;;21.92;41.55
22481;BME280;11407;56.964;-2.212;2022-08-21T02:35:42;100648.19;;;21.97;41.51
22481;BME280;11407;56.964;-2.212;2022-08-21T02:38:10;100639.56;;;22.01;41.32
22481;BME280;11407;56.964;-2.212;2022-08-21T02:40:40;100622.16;;;21.97;41.48
22481;BME280;11407;56.964;-2.212;2022-08-21T02:43:06;100638.03;;;21.92;41.77
22481;BME280;11407;56.964;-2.212;2022-08-21T02:45:33;100623.75;;;21.92;41.68
22481;BME280;11407;56.964;-2.212;2022-08-21T02:48:02;100618.66;;;21.97;41.57
22481;BME280;11407;56.964;-2.212;2022-08-21T02:50:32;100619.41;;;21.91;41.78
22481;BME280;11407;56.964;-2.212;2022-08-21T02:52:58;100618.31;;;21.85;41.80
22481;BME280;11407;56.964;-2.212;2022-08-21T02:55:26;100614.31;;;21.96;41.79
22481;BME280;11407;56.964;-2.212;2022-08-21T02:57:53;100614.19;;;21.83;41.79
22481;BME280;11407;56.964;-2.212;2022-08-21T03:00:19;100627.91;;;21.74;42.09
22481;BME280;11407;56.964;-2.212;2022-08-21T03:02:47;100634.72;;;21.76;42.40
22481;BME280;11407;56.964;-2.212;2022-08-21T03:05:14;100634.34;;;21.79;42.37
22481;BME280;11407;56.964;-2.212;2022-08-21T03:07:41;100638.50;;;21.82;42.19
22481;BME280;11407;56.964;-2.212;2022-08-21T03:10:08;100634.19;;;21.81;42.45
22481;BME280;11407;56.964;-2.212;2022-08-21T03:12:34;100640.25;;;21.89;42.02
22481;BME280;11407;56.964;-2.212;2022-08-21T03:15:04;100642.34;;;21.93;41.84
22481;BME280;11407;56.964;-2.212;2022-08-21T03:17:32;100646.38;;;21.83;41.97
22481;BME280;11407;56.964;-2.212;2022-08-21T03:19:57;100651.22;;;21.73;42.38
22481;BME280;11407;56.964;-2.212;2022-08-21T03:22:23;100642.31;;;21.87;42.11
22481;BME280;11407;56.964;-2.212;2022-08-21T03:24:48;100644.78;;;21.88;41.85
22481;BME280;11407;56.964;-2.212;2022-08-21T03:27:15;100647.72;;;21.93;41.78
22481;BME280;11407;56.964;-2.212;2022-08-21T03:29:40;100643.56;;;21.91;42.11
22481;BME280;11407;56.964;-2.212;2022-08-21T03:32:06;100637.31;;;21.84;41.93
22481;BME280;11407;56.964;-2.212;2022-08-21T03:34:37;100639.72;;;21.79;42.16
22481;BME280;11407;56.964;-2.212;2022-08-21T03:37:04;100626.22;;;21.87;41.82
22481;BME280;11407;56.964;-2.212;2022-08-21T03:39:30;100627.28;;;21.92;42.11
22481;BME280;11407;56.964;-2.212;2022-08-21T03:41:56;100621.59;;;21.81;42.27
22481;BME280;11407;56.964;-2.212;2022-08-21T03:44:21;100623.53;;;21.87;42.22
22481;BME280;11407;56.964;-2.212;2022-08-21T03:46:47;100630.28;;;21.83;42.17
22481;BME280;11407;56.964;-2.212;2022-08-21T03:49:12;100635.28;;;21.86;42.10
22481;BME280;11407;56.964;-2.212;2022-08-21T03:51:38;100637.75;;;21.87;42.29
22481;BME280;11407;56.964;-2.212;2022-08-21T03:54:04;100632.88;;;21.77;42.45
22481;BME280;11407;56.964;-2.212;2022-08-21T03:56:29;100641.84;;;21.83;42.66
22481;BME280;11407;56.964;-2.212;2022-08-21T03:58:55;100650.53;;;21.85;42.63
22481;BME280;11407;56.964;-2.212;2022-08-21T04:01:20;100648.50;;;21.87;42.26
22481;BME280;11407;56.964;-2.212;2022-08-21T04:03:46;100649.13;;;21.89;42.22
22481;BME280;11407;56.964;-2.212;2022-08-21T04:06:11;100652.03;;;21.74;42.63
22481;BME280;11407;56.964;-2.212;2022-08-21T04:08:37;100662.50;;;21.83;42.41
22481;BME280;11407;56.964;-2.212;2022-08-21T04:11:03;100658.22;;;21.88;42.43
22481;BME280;11407;56.964;-2.212;2022-08-21T04:13:30;100658.25;;;21.74;42.07
22481;BME280;11407;56.964;-2.212;2022-08-21T04:15:56;100675.53;;;21.72;42.43
22481;BME280;11407;56.964;-2.212;2022-08-21T04:18:23;100681.75;;;21.72;42.41
22481;BME280;11407;56.964;-2.212;2022-08-21T04:20:51;100678.59;;;21.83;42.61
22481;BME280;11407;56.964;-2.212;2022-08-21T04:23:20;100678.84;;;21.88;42.16
22481;BME280;11407;56.964;-2.212;2022-08-21T04:25:46;100684.47;;;21.93;42.28
22481;BME280;11407;56.964;-2.212;2022-08-21T04:28:11;100687.66;;;21.82;42.50
22481;BME280;11407;56.964;-2.212;2022-08-21T04:30:37;100685.78;;;21.83;42.42
22481;BME280;11407;56.964;-2.212;2022-08-21T04:33:02;100691.44;;;21.87;42.49
22481;BME280;11407;56.964;-2.212;2022-08-21T04:35:29;100699.13;;;21.90;42.71
22481;BME280;11407;56.964;-2.212;2022-08-21T04:37:55;100690.81;;;22.06;42.30
22481;BME280;11407;56.964;-2.212;2022-08-21T04:40:23;100688.56;;;21.89;43.02
22481;BME280;11407;56.964;-2.212;2022-08-21T04:43:02;100691.31;;;22.16;42.58
22481;BME280;11407;56.964;-2.212;2022-08-21T04:45:37;100686.88;;;22.23;42.54
22481;BME280;11407;56.964;-2.212;2022-08-21T04:48:05;100692.03;;;22.25;42.51
22481;BME280;11407;56.964;-2.212;2022-08-21T04:50:45;100690.44;;;22.30;42.71
22481;BME280;11407;56.964;-2.212;2022-08-21T04:53:18;100692.03;;;22.25;43.15
22481;BME280;11407;56.964;-2.212;2022-08-21T04:55:45;100697.69;;;22.30;43.01
22481;BME280;11407;56.964;-2.212;2022-08-21T04:58:14;100690.09;;;22.33;43.19
22481;BME280;11407;56.964;-2.212;2022-08-21T05:00:43;100700.31;;;22.44;42.93
22481;BME280;11407;56.964;-2.212;2022-08-21T05:03:11;100713.59;;;22.52;43.01
22481;BME280;11407;56.964;-2.212;2022-08-21T05:05:37;100720.78;;;22.45;43.21
22481;BME280;11407;56.964;-2.212;2022-08-21T05:08:04;100721.50;;;22.54;42.89
22481;BME280;11407;56.964;-2.212;2022-08-21T05:10:31;100719.50;;;22.62;42.95
22481;BME280;11407;56.964;-2.212;2022-08-21T05:12:57;100718.81;;;22.54;43.13
22481;BME280;11407;56.964;-2.212;2022-08-21T05:15:23;100720.78;;;22.66;42.92
22481;BME280;11407;56.964;-2.212;2022-08-21T05:17:48;100724.69;;;22.64;42.80
22481;BME280;11407;56.964;-2.212;2022-08-21T05:20:15;100733.63;;;22.71;42.72
22481;BME280;11407;56.964;-2.212;2022-08-21T05:22:41;100741.88;;;22.69;42.70
22481;BME280;11407;56.964;-2.212;2022-08-21T05:25:07;100743.28;;;22.65;42.77
22481;BME280;11407;56.964;-2.212;2022-08-21T05:27:32;100748.88;;;22.64;42.69
22481;BME280;11407;56.964;-2.212;2022-08-21T05:29:58;100745.75;;;22.60;42.84
22481;BME280;11407;56.964;-2.212;2022-08-21T05:32:24;100758.97;;;22.62;42.75
22481;BME280;11407;56.964;-2.212;2022-08-21T05:34:50;100748.66;;;22.65;42.59
22481;BME280;11407;56.964;-2.212;2022-08-21T05:37:15;100762.88;;;22.59;42.85
22481;BME280;11407;56.964;-2.212;2022-08-21T05:39:41;100754.75;;;22.74;42.40
22481;BME280;11407;56.964;-2.212;2022-08-21T05:42:07;100765.00;;;22.64;42.60
22481;BME280;11407;56.964;-2.212;2022-08-21T05:44:33;100773.25;;;22.62;42.62
22481;BME280;11407;56.964;-2.212;2022-08-21T05:47:06;100772.69;;;22.67;42.75
22481;BME280;11407;56.964;-2.212;2022-08-21T05:49:33;100762.88;;;22.59;42.65
22481;BME280;11407;56.964;-2.212;2022-08-21T05:51:58;100750.34;;;22.45;43.11
22481;BME280;11407;56.964;-2.212;2022-08-21T05:54:24;100754.75;;;22.53;43.08
22481;BME280;11407;56.964;-2.212;2022-08-21T05:56:50;100756.81;;;22.51;43.38
22481;BME280;11407;56.964;-2.212;2022-08-21T05:59:15;100772.69;;;22.67;43.04
22481;BME280;11407;56.964;-2.212;2022-08-21T06:01:41;100771.06;;;22.72;43.32
22481;BME280;11407;56.964;-2.212;2022-08-21T06:04:06;100774.25;;;22.82;43.67
22481;BME280;11407;56.964;-2.212;2022-08-21T06:06:33;100770.53;;;23.04;43.92
22481;BME280;11407;56.964;-2.212;2022-08-21T06:08:58;100763.22;;;23.19;43.78
22481;BME280;11407;56.964;-2.212;2022-08-21T06:11:24;100759.66;;;23.46;43.45
22481;BME280;11407;56.964;-2.212;2022-08-21T06:13:49;100764.91;;;23.54;43.93
22481;BME280;11407;56.964;-2.212;2022-08-21T06:16:16;100764.78;;;23.68;43.19
22481;BME280;11407;56.964;-2.212;2022-08-21T06:18:43;100757.66;;;23.94;42.79
22481;BME280;11407;56.964;-2.212;2022-08-21T06:21:09;100756.03;;;24.00;42.93
22481;BME280;11407;56.964;-2.212;2022-08-21T06:23:37;100759.38;;;24.02;43.05
22481;BME280;11407;56.964;-2.212;2022-08-21T06:26:05;100762.25;;;23.94;42.58
22481;BME280;11407;56.964;-2.212;2022-08-21T06:28:32;100761.63;;;23.98;42.68
22481;BME280;11407;56.964;-2.212;2022-08-21T06:30:57;100760.19;;;24.09;42.42
22481;BME280;11407;56.964;-2.212;2022-08-21T06:33:23;100763.53;;;24.11;42.85
22481;BME280;11407;56.964;-2.212;2022-08-21T06:35:49;100773.06;;;24.13;42.38
22481;BME280;11407;56.964;-2.212;2022-08-21T06:38:15;100773.94;;;24.20;42.31
22481;BME280;11407;56.964;-2.212;2022-08-21T06:40:41;100771.44;;;24.19;42.75
22481;BME280;11407;56.964;-2.212;2022-08-21T06:43:13;100768.78;;;24.38;42.42
22481;BME280;11407;56.964;-2.212;2022-08-21T06:45:39;100764.66;;;24.36;42.27
22481;BME280;11407;56.964;-2.212;2022-08-21T06:48:05;100765.91;;;24.33;42.55
22481;BME280;11407;56.964;-2.212;2022-08-21T06:50:32;100764.41;;;24.31;42.18
22481;BME280;11407;56.964;-2.212;2022-08-21T06:53:05;100769.50;;;24.60;41.93
22481;BME280;11407;56.964;-2.212;2022-08-21T06:55:31;100765.13;;;24.59;42.35
22481;BME280;11407;56.964;-2.212;2022-08-21T06:57:57;100775.91;;;24.52;42.29
22481;BME280;11407;56.964;-2.212;2022-08-21T07:00:22;100779.84;;;24.50;42.43
22481;BME280;11407;56.964;-2.212;2022-08-21T07:02:48;100784.44;;;24.62;42.13
22481;BME280;11407;56.964;-2.212;2022-08-21T07:05:13;100787.34;;;24.61;42.15
22481;BME280;11407;56.964;-2.212;2022-08-21T07:07:39;100776.78;;;24.59;42.29
22481;BME280;11407;56.964;-2.212;2022-08-21T07:10:04;100776.34;;;24.62;41.95
22481;BME280;11407;56.964;-2.212;2022-08-21T07:12:30;100784.41;;;24.49;42.31
22481;BME280;11407;56.964;-2.212;2022-08-21T07:14:56;100772.72;;;24.36;42.45
22481;BME280;11407;56.964;-2.212;2022-08-21T07:17:22;100783.72;;;24.34;42.81
22481;BME280;11407;56.964;-2.212;2022-08-21T07:19:47;100787.72;;;24.51;42.53
22481;BME280;11407;56.964;-2.212;2022-08-21T07:22:18;100795.00;;;24.51;41.82
22481;BME280;11407;56.964;-2.212;2022-08-21T07:24:45;100797.41;;;24.39;42.67
22481;BME280;11407;56.964;-2.212;2022-08-21T07:27:10;100799.78;;;24.55;42.59
22481;BME280;11407;56.964;-2.212;2022-08-21T07:29:35;100799.06;;;24.40;42.24
22481;BME280;11407;56.964;-2.212;2022-08-21T07:32:01;100795.44;;;24.67;42.28
22481;BME280;11407;56.964;-2.212;2022-08-21T07:34:26;100800.44;;;24.70;42.25
22481;BME280;11407;56.964;-2.212;2022-08-21T07:36:52;100803.53;;;24.67;42.39
22481;BME280;11407;56.964;-2.212;2022-08-21T07:39:18;100807.06;;;24.87;41.25
22481;BME280;11407;56.964;-2.212;2022-08-21T07:41:43;100799.41;;;24.97;41.63
22481;BME280;11407;56.964;-2.212;2022-08-21T07:44:09;100812.69;;;24.92;41.49
22481;BME280;11407;56.964;-2.212;2022-08-21T07:46:34;100809.16;;;24.98;41.26
22481;BME280;11407;56.964;-2.212;2022-08-21T07:48:59;100818.09;;;24.98;41.55
22481;BME280;11407;56.964;-2.212;2022-08-21T07:51:26;100833.84;;;24.82;41.96
22481;BME280;11407;56.964;-2.212;2022-08-21T07:53:55;100824.09;;;24.81;42.03
22481;BME280;11407;56.964;-2.212;2022-08-21T07:56:21;100825.97;;;25.00;41.96
22481;BME280;11407;56.964;-2.212;2022-08-21T07:58:47;100828.44;;;25.01;42.21
22481;BME280;11407;56.964;-2.212;2022-08-21T08:01:13;100819.59;;;25.27;41.65
22481;BME280;11407;56.964;-2.212;2022-08-21T08:03:39;100824.53;;;25.04;42.25
22481;BME280;11407;56.964;-2.212;2022-08-21T08:06:05;100827.63;;;25.07;42.32
22481;BME280;11407;56.964;-2.212;2022-08-21T08:08:31;100817.66;;;25.01;41.93
22481;BME280;11407;56.964;-2.212;2022-08-21T08:10:57;100823.50;;;24.98;41.91
22481;BME280;11407;56.964;-2.212;2022-08-21T08:13:24;100821.81;;;25.62;41.23
22481;BME280;11407;56.964;-2.212;2022-08-21T08:15:49;100816.41;;;25.68;40.67
22481;BME280;11407;56.964;-2.212;2022-08-21T08:18:15;100822.59;;;25.75;40.74
22481;BME280;11407;56.964;-2.212;2022-08-21T08:20:41;100823.06;;;25.79;40.87
22481;BME280;11407;56.964;-2.212;2022-08-21T08:23:10;100818.63;;;26.04;40.18
22481;BME280;11407;56.964;-2.212;2022-08-21T08:25:35;100826.13;;;25.95;40.04
22481;BME280;11407;56.964;-2.212;2022-08-21T08:28:01;100821.09;;;26.05;40.48
22481;BME280;11407;56.964;-2.212;2022-08-21T08:30:26;100815.66;;;26.18;40.43
22481;BME280;11407;56.964;-2.212;2022-08-21T08:32:52;100820.88;;;26.07;40.29
22481;BME280;11407;56.964;-2.212;2022-08-21T08:35:18;100824.22;;;26.02;40.09
22481;BME280;11407;56.964;-2.212;2022-08-21T08:37:43;100830.78;;;26.32;39.81
22481;BME280;11407;56.964;-2.212;2022-08-21T08:40:32;100825.72;;;26.49;38.79
22481;BME280;11407;56.964;-2.212;2022-08-21T08:43:01;100825.66;;;26.61;39.69
22481;BME280;11407;56.964;-2.212;2022-08-21T08:45:29;100820.72;;;26.83;39.33
22481;BME280;11407;56.964;-2.212;2022-08-21T08:48:01;100821.09;;;26.86;39.00
22481;BME280;11407;56.964;-2.212;2022-08-21T08:50:52;100824.50;;;27.13;39.84
22481;BME280;11407;56.964;-2.212;2022-08-21T08:53:24;100804.72;;;27.37;38.65
22481;BME280;11407;56.964;-2.212;2022-08-21T08:55:51;100806.75;;;27.59;39.83
22481;BME280;11407;56.964;-2.212;2022-08-21T08:58:27;100808.56;;;27.89;37.92
22481;BME280;11407;56.964;-2.212;2022-08-21T09:00:55;100810.59;;;28.12;38.90
22481;BME280;11407;56.964;-2.212;2022-08-21T09:03:22;100816.66;;;28.43;38.69
22481;BME280;11407;56.964;-2.212;2022-08-21T09:16:29;100827.56;;;29.36;35.99
22481;BME280;11407;56.964;-2.212;2022-08-21T09:27:10;100840.47;;;29.86;35.43
22481;BME280;11407;56.964;-2.212;2022-08-21T09:29:39;100835.69;;;30.28;35.74
22481;BME280;11407;56.964;-2.212;2022-08-21T09:32:21;100840.59;;;30.42;32.90
22481;BME280;11407;56.964;-2.212;2022-08-21T09:37:30;100839.78;;;30.41;35.00
22481;BME280;11407;56.964;-2.212;2022-08-21T09:39:57;100844.38;;;30.41;34.61
22481;BME280;11407;56.964;-2.212;2022-08-21T09:42:30;100847.81;;;30.48;35.14
22481;BME280;11407;56.964;-2.212;2022-08-21T09:45:12;100840.34;;;30.55;34.63
22481;BME280;11407;56.964;-2.212;2022-08-21T09:47:40;100833.75;;;30.39;34.44
22481;BME280;11407;56.964;-2.212;2022-08-21T09:50:17;100836.47;;;30.39;32.39
22481;BME280;11407;56.964;-2.212;2022-08-21T09:52:47;100837.88;;;30.42;34.01
22481;BME280;11407;56.964;-2.212;2022-08-21T09:55:20;100838.16;;;30.29;33.83
22481;BME280;11407;56.964;-2.212;2022-08-21T09:58:06;100842.19;;;30.15;33.72
22481;BME280;11407;56.964;-2.212;2022-08-21T10:00:33;100850.28;;;29.87;34.34
22481;BME280;11407;56.964;-2.212;2022-08-21T10:05:38;100847.78;;;29.63;34.42
22481;BME280;11407;56.964;-2.212;2022-08-21T10:08:04;100850.66;;;29.56;34.26
22481;BME280;11407;56.964;-2.212;2022-08-21T10:10:32;100848.03;;;29.73;33.57
22481;BME280;11407;56.964;-2.212;2022-08-21T10:16:07;100852.41;;;29.74;31.69
22481;BME280;11407;56.964;-2.212;2022-08-21T10:18:42;100868.25;;;29.88;32.93
22481;BME280;11407;56.964;-2.212;2022-08-21T10:26:32;100856.00;;;30.36;33.16
22481;BME280;11407;56.964;-2.212;2022-08-21T10:32:02;100866.44;;;30.67;32.15
22481;BME280;11407;56.964;-2.212;2022-08-21T10:34:52;100867.31;;;30.56;29.25
22481;BME280;11407;56.964;-2.212;2022-08-21T10:37:37;100874.44;;;30.46;31.46
22481;BME280;11407;56.964;-2.212;2022-08-21T10:40:08;100870.41;;;30.60;31.96
22481;BME280;11407;56.964;-2.212;2022-08-21T10:42:55;100881.28;;;30.48;30.44
22481;BME280;11407;56.964;-2.212;2022-08-21T10:48:08;100885.06;;;30.47;31.68
22481;BME280;11407;56.964;-2.212;2022-08-21T10:51:22;100884.84;;;30.37;30.50
22481;BME280;11407;56.964;-2.212;2022-08-21T10:55:55;100897.53;;;30.32;32.12
22481;BME280;11407;56.964;-2.212;2022-08-21T10:58:25;100900.72;;;30.40;31.57
22481;BME280;11407;56.964;-2.212;2022-08-21T11:00:58;100913.97;;;30.37;30.70
22481;BME280;11407;56.964;-2.212;2022-08-21T11:03:33;100900.63;;;30.24;30.26
22481;BME280;11407;56.964;-2.212;2022-08-21T11:06:13;100912.19;;;30.31;29.15
22481;BME280;11407;56.964;-2.212;2022-08-21T11:08:50;100905.34;;;30.29;29.33
22481;BME280;11407;56.964;-2.212;2022-08-21T11:11:31;100911.81;;;30.39;29.29
22481;BME280;11407;56.964;-2.212;2022-08-21T11:14:04;100916.22;;;30.29;29.84
22481;BME280;11407;56.964;-2.212;2022-08-21T11:16:41;100914.94;;;30.08;31.08
22481;BME280;11407;56.964;-2.212;2022-08-21T11:22:28;100926.41;;;30.22;27.97
22481;BME280;11407;56.964;-2.212;2022-08-21T11:25:02;100933.41;;;30.18;30.44
22481;BME280;11407;56.964;-2.212;2022-08-21T11:27:42;100935.06;;;30.19;28.05
22481;BME280;11407;56.964;-2.212;2022-08-21T11:30:10;100940.72;;;30.17;30.96
22481;BME280;11407;56.964;-2.212;2022-08-21T11:43:22;100928.81;;;31.08;29.97
22481;BME280;11407;56.964;-2.212;2022-08-21T11:45:55;100925.53;;;31.23;29.15
22481;BME280;11407;56.964;-2.212;2022-08-21T11:48:39;100930.59;;;31.30;30.16
22481;BME280;11407;56.964;-2.212;2022-08-21T11:51:10;100922.09;;;31.43;29.25
22481;BME280;11407;56.964;-2.212;2022-08-21T11:53:52;100935.91;;;31.53;30.00
22481;BME280;11407;56.964;-2.212;2022-08-21T11:56:31;100934.66;;;31.77;29.30
22481;BME280;11407;56.964;-2.212;2022-08-21T11:59:02;100934.00;;;31.54;29.68
22481;BME280;11407;56.964;-2.212;2022-08-21T12:01:36;100938.06;;;31.51;29.22
22481;BME280;11407;56.964;-2.212;2022-08-21T12:06:41;100931.75;;;31.51;28.44
22481;BME280;11407;56.964;-2.212;2022-08-21T12:09:10;100942.16;;;31.37;27.77
22481;BME280;11407;56.964;-2.212;2022-08-21T12:11:48;100950.97;;;31.28;25.76
22481;BME280;11407;56.964;-2.212;2022-08-21T12:14:17;100946.84;;;31.26;27.93
22481;BME280;11407;56.964;-2.212;2022-08-21T12:16:48;100956.41;;;31.00;28.03
22481;BME280;11407;56.964;-2.212;2022-08-21T12:21:57;100960.38;;;30.81;27.14
22481;BME280;11407;56.964;-2.212;2022-08-21T12:26:56;100968.25;;;30.66;27.94
22481;BME280;11407;56.964;-2.212;2022-08-21T12:29:30;100967.66;;;30.53;26.30
22481;BME280;11407;56.964;-2.212;2022-08-21T12:34:42;100974.09;;;30.24;27.17
22481;BME280;11407;56.964;-2.212;2022-08-21T12:39:59;100978.59;;;30.19;29.13
22481;BME280;11407;56.964;-2.212;2022-08-21T12:42:38;100979.03;;;30.04;27.02
22481;BME280;11407;56.964;-2.212;2022-08-21T12:45:17;100986.25;;;29.99;28.43
22481;BME280;11407;56.964;-2.212;2022-08-21T12:50:19;100983.13;;;29.84;29.46
22481;BME280;11407;56.964;-2.212;2022-08-21T12:55:32;100965.09;;;30.01;29.70
22481;BME280;11407;56.964;-2.212;2022-08-21T12:57:57;100972.41;;;30.12;30.02
22481;BME280;11407;56.964;-2.212;2022-08-21T13:00:26;100975.75;;;30.25;29.72
22481;BME280;11407;56.964;-2.212;2022-08-21T13:02:53;100976.22;;;30.22;29.19
22481;BME280;11407;56.964;-2.212;2022-08-21T13:05:32;100986.13;;;30.05;26.57
22481;BME280;11407;56.964;-2.212;2022-08-21T13:07:59;100988.47;;;29.90;29.02
22481;BME280;11407;56.964;-2.212;2022-08-21T13:10:31;100985.06;;;29.95;28.33
22481;BME280;11407;56.964;-2.212;2022-08-21T13:13:00;100978.81;;;30.06;29.22
22481;BME280;11407;56.964;-2.212;2022-08-21T13:15:32;100976.31;;;30.27;29.39
22481;BME280;11407;56.964;-2.212;2022-08-21T13:17:59;100972.88;;;30.43;28.93
22481;BME280;11407;56.964;-2.212;2022-08-21T13:20:36;100982.00;;;30.60;27.96
22481;BME280;11407;56.964;-2.212;2022-08-21T13:23:15;100985.53;;;30.60;27.05
22481;BME280;11407;56.964;-2.212;2022-08-21T13:25:43;100991.81;;;30.49;28.71
22481;BME280;11407;56.964;-2.212;2022-08-21T13:28:12;100999.47;;;30.64;28.58
22481;BME280;11407;56.964;-2.212;2022-08-21T13:30:45;100998.22;;;30.55;27.04
22481;BME280;11407;56.964;-2.212;2022-08-21T13:33:14;100998.91;;;30.62;28.01
22481;BME280;11407;56.964;-2.212;2022-08-21T13:38:13;100999.00;;;30.78;29.05
22481;BME280;11407;56.964;-2.212;2022-08-21T13:40:50;100995.47;;;30.66;27.02
22481;BME280;11407;56.964;-2.212;2022-08-21T13:43:20;100996.28;;;30.67;28.26
22481;BME280;11407;56.964;-2.212;2022-08-21T13:45:51;100993.84;;;30.93;28.00
22481;BME280;11407;56.964;-2.212;2022-08-21T13:48:18;100987.34;;;31.06;28.56
22481;BME280;11407;56.964;-2.212;2022-08-21T13:50:45;100994.06;;;31.15;27.92
22481;BME280;11407;56.964;-2.212;2022-08-21T13:53:51;100984.50;;;31.56;27.93
22481;BME280;11407;56.964;-2.212;2022-08-21T13:56:46;100982.38;;;31.75;27.39
22481;BME280;11407;56.964;-2.212;2022-08-21T13:59:10;100978.16;;;31.67;27.95
22481;BME280;11407;56.964;-2.212;2022-08-21T14:04:14;100984.13;;;31.64;27.43
22481;BME280;11407;56.964;-2.212;2022-08-21T14:06:41;100983.06;;;31.54;27.30
22481;BME280;11407;56.964;-2.212;2022-08-21T14:09:11;100988.19;;;31.50;26.05